San Antonio, Texas
Traffic Map
Current Weather Conditions
San Antonio, Texas
Clear
Clear
52°
Feels Like: 52°
Wind Chill: 52° Ceiling: Unl
Heat Index: 52° Visibility: 10mi
Dew Point: 43° Wind: 2mph
Humidity: 71% Direction: 360° (N)
Pressure: 30.26in Gusts: 0mph
Raw Report DataKSKF 130758Z AUTO 36002KT 10SM CLR 11/06 A3026 RMK AO2 SLP244 T01110061 $
Traffic Incident Summary
Active as of:
Severity:
Category:
InformationThere was an issue retrieving the traffic information for this location. Please try a different location or try again shortly.
Advertisements
Track Severe Weather on mobile